PWSweather.com
Personal Weather Stations
Station Observations
IHTIMAN1
Neighbourhood 1, IhtimanBG 2050

Neighbourhood 1IhtimanBG 2050

Lat: 42.436852, Lon: 23.817921

Elevation: 2066

Station Type: Oregon Scientific WMR968

http://ihtiman-meteo.com

High Low Average
Temperature 89.6°F32.0°C 55.4°F13.0°C 71.6°F22.0°C
Dew Point 66.7°F19.3°C 51.4°F10.8°C 57.4°F14.1°C
Winds 5.8 mph 9.3 kmh Calm Calm 1.0 mph SW1.6 kmh SW
Wind Gusts 6.9 mph11.1 kmh -- 1.0 mph1.6 kmh
Humidity 98% 30% 68%
Pressure 30.06 in1017.9 mb 30.00 in1015.9 mb -
Precipitation 0.00 in0.0 mm - -
Hour Temp Dew Point Humidity Winds Wind Gusts Pressure Precip Precip Rate Daily Precip Total
12:00 AM 59.7°F15.4°C 59.2°F15.1°C 98% Calm Calm -- 30.06 in1017.9 mb - 0.00 in0.0 mm 0.00 in0.0 mm
12:10 AM 59.4°F15.2°C 58.8°F14.9°C 98% Calm Calm -- 30.06 in1017.9 mb - 0.00 in0.0 mm 0.00 in0.0 mm
12:20 AM 59.4°F15.2°C 58.8°F14.9°C 98% Calm Calm -- 30.06 in1017.9 mb - 0.00 in0.0 mm 0.00 in0.0 mm
12:30 AM 59.4°F15.2°C 58.8°F14.9°C 98% Calm Calm -- 30.06 in1017.9 mb - 0.00 in0.0 mm 0.00 in0.0 mm
12:40 AM 59.2°F15.1°C 58.6°F14.8°C 98% Calm Calm -- 30.06 in1017.9 mb - 0.00 in0.0 mm 0.00 in0.0 mm
12:50 AM 59.0°F15.0°C 58.4°F14.7°C 98% Calm Calm -- 30.03 in1016.9 mb - 0.00 in0.0 mm 0.00 in0.0 mm
01:00 AM 58.3°F14.6°C 57.8°F14.3°C 98% Calm Calm -- 30.06 in1017.9 mb - 0.00 in0.0 mm 0.00 in0.0 mm
01:10 AM 57.8°F14.3°C 57.2°F14.0°C 98% Calm Calm -- 30.06 in1017.9 mb - 0.00 in0.0 mm 0.00 in0.0 mm
01:20 AM 57.6°F14.2°C 57.0°F13.9°C 98% Calm Calm -- 30.06 in1017.9 mb - 0.00 in0.0 mm 0.00 in0.0 mm
01:30 AM 57.6°F14.2°C 57.0°F13.9°C 98% Calm Calm -- 30.06 in1017.9 mb - 0.00 in0.0 mm 0.00 in0.0 mm
01:40 AM 57.5°F14.2°C 57.0°F13.9°C 98% Calm Calm -- 30.06 in1017.9 mb - 0.00 in0.0 mm 0.00 in0.0 mm
01:50 AM 57.4°F14.1°C 56.8°F13.8°C 98% Calm Calm -- 30.03 in1016.9 mb - 0.00 in0.0 mm 0.00 in0.0 mm
02:00 AM 57.3°F14.1°C 56.7°F13.7°C 98% Calm Calm -- 30.03 in1016.9 mb - 0.00 in0.0 mm 0.00 in0.0 mm
02:10 AM 56.8°F13.8°C 56.3°F13.5°C 98% Calm Calm -- 30.03 in1016.9 mb - 0.00 in0.0 mm 0.00 in0.0 mm
02:20 AM 56.8°F13.8°C 56.3°F13.5°C 98% Calm Calm -- 30.03 in1016.9 mb - 0.00 in0.0 mm 0.00 in0.0 mm
02:30 AM 56.8°F13.8°C 56.3°F13.5°C 98% Calm Calm -- 30.03 in1016.9 mb - 0.00 in0.0 mm 0.00 in0.0 mm
02:40 AM 57.2°F14.0°C 56.6°F13.7°C 98% Calm Calm -- 30.03 in1016.9 mb - 0.00 in0.0 mm 0.00 in0.0 mm
02:50 AM 57.6°F14.2°C 57.0°F13.9°C 98% Calm Calm -- 30.03 in1016.9 mb - 0.00 in0.0 mm 0.00 in0.0 mm
03:00 AM 57.6°F14.2°C 57.0°F13.9°C 98% Calm Calm -- 30.03 in1016.9 mb - 0.00 in0.0 mm 0.00 in0.0 mm
03:10 AM 57.4°F14.1°C 56.8°F13.8°C 98% Calm Calm -- 30.03 in1016.9 mb - 0.00 in0.0 mm 0.00 in0.0 mm
03:20 AM 57.2°F14.0°C 56.6°F13.7°C 98% Calm Calm -- 30.03 in1016.9 mb - 0.00 in0.0 mm 0.00 in0.0 mm
03:30 AM 57.0°F13.9°C 56.5°F13.6°C 98% Calm Calm -- 30.03 in1016.9 mb - 0.00 in0.0 mm 0.00 in0.0 mm
03:40 AM 56.9°F13.8°C 56.3°F13.5°C 98% Calm Calm -- 30.03 in1016.9 mb - 0.00 in0.0 mm 0.00 in0.0 mm
03:50 AM 56.7°F13.7°C 56.1°F13.4°C 98% Calm Calm -- 30.03 in1016.9 mb - 0.00 in0.0 mm 0.00 in0.0 mm
04:00 AM 56.3°F13.5°C 55.7°F13.2°C 98% Calm Calm -- 30.03 in1016.9 mb - 0.00 in0.0 mm 0.00 in0.0 mm
04:10 AM 56.1°F13.4°C 55.6°F13.1°C 98% Calm Calm -- 30.03 in1016.9 mb - 0.00 in0.0 mm 0.00 in0.0 mm
04:20 AM 55.9°F13.3°C 55.4°F13.0°C 98% Calm Calm -- 30.03 in1016.9 mb - 0.00 in0.0 mm 0.00 in0.0 mm
04:30 AM 55.9°F13.3°C 55.4°F13.0°C 98% Calm Calm -- 30.03 in1016.9 mb - 0.00 in0.0 mm 0.00 in0.0 mm
04:40 AM 55.8°F13.2°C 55.2°F12.9°C 98% Calm Calm -- 30.03 in1016.9 mb - 0.00 in0.0 mm 0.00 in0.0 mm
04:50 AM 55.9°F13.3°C 55.4°F13.0°C 98% Calm Calm -- 30.03 in1016.9 mb - 0.00 in0.0 mm 0.00 in0.0 mm
05:00 AM 56.1°F13.4°C 55.6°F13.1°C 98% Calm Calm -- 30.03 in1016.9 mb - 0.00 in0.0 mm 0.00 in0.0 mm
05:10 AM 56.1°F13.4°C 55.5°F13.1°C 98% Calm Calm -- 30.03 in1016.9 mb - 0.00 in0.0 mm 0.00 in0.0 mm
05:20 AM 55.8°F13.2°C 55.2°F12.9°C 98% Calm Calm -- 30.03 in1016.9 mb - 0.00 in0.0 mm 0.00 in0.0 mm
05:30 AM 55.6°F13.1°C 55.0°F12.8°C 98% Calm Calm -- 30.03 in1016.9 mb - 0.00 in0.0 mm 0.00 in0.0 mm
05:40 AM 55.4°F13.0°C 54.8°F12.7°C 98% Calm Calm -- 30.03 in1016.9 mb - 0.00 in0.0 mm 0.00 in0.0 mm
06:00 AM 56.7°F13.7°C 56.1°F13.4°C 98% Calm Calm -- 30.03 in1016.9 mb - 0.00 in0.0 mm 0.00 in0.0 mm
06:10 AM 56.1°F13.4°C 55.6°F13.1°C 98% Calm Calm -- 30.03 in1016.9 mb - 0.00 in0.0 mm 0.00 in0.0 mm
06:20 AM 56.3°F13.5°C 55.7°F13.2°C 98% Calm Calm -- 30.03 in1016.9 mb - 0.00 in0.0 mm 0.00 in0.0 mm
06:30 AM 56.5°F13.6°C 56.0°F13.3°C 98% Calm Calm -- 30.03 in1016.9 mb - 0.00 in0.0 mm 0.00 in0.0 mm
06:40 AM 57.2°F14.0°C 56.6°F13.7°C 98% Calm Calm -- 30.03 in1016.9 mb - 0.00 in0.0 mm 0.00 in0.0 mm
06:50 AM 57.7°F14.3°C 57.1°F13.9°C 98% Calm Calm -- 30.06 in1017.9 mb - 0.00 in0.0 mm 0.00 in0.0 mm
07:00 AM 58.1°F14.5°C 57.5°F14.2°C 98% Calm Calm -- 30.06 in1017.9 mb - 0.00 in0.0 mm 0.00 in0.0 mm
07:10 AM 58.1°F14.5°C 57.5°F14.2°C 98% Calm Calm -- 30.06 in1017.9 mb - 0.00 in0.0 mm 0.00 in0.0 mm
07:20 AM 59.9°F15.5°C 59.4°F15.2°C 98% Calm Calm -- 30.06 in1017.9 mb - 0.00 in0.0 mm 0.00 in0.0 mm
07:30 AM 60.9°F16.1°C 60.3°F15.7°C 98% Calm Calm -- 30.06 in1017.9 mb - 0.00 in0.0 mm 0.00 in0.0 mm
07:40 AM 62.2°F16.8°C 61.6°F16.4°C 98% Calm Calm -- 30.06 in1017.9 mb - 0.00 in0.0 mm 0.00 in0.0 mm
07:50 AM 63.7°F17.6°C 63.1°F17.3°C 98% Calm Calm -- 30.06 in1017.9 mb - 0.00 in0.0 mm 0.00 in0.0 mm
08:00 AM 65.0°F18.3°C 62.3°F16.8°C 91% Calm Calm -- 30.03 in1016.9 mb - 0.00 in0.0 mm 0.00 in0.0 mm
08:10 AM 66.0°F18.9°C 59.6°F15.3°C 80% Calm Calm -- 30.03 in1016.9 mb - 0.00 in0.0 mm 0.00 in0.0 mm
08:20 AM 67.3°F19.6°C 59.5°F15.3°C 76% Calm Calm -- 30.06 in1017.9 mb - 0.00 in0.0 mm 0.00 in0.0 mm
08:30 AM 67.6°F19.8°C 58.2°F14.6°C 72% Calm Calm -- 30.06 in1017.9 mb - 0.00 in0.0 mm 0.00 in0.0 mm
08:40 AM 68.3°F20.2°C 58.1°F14.5°C 70% Calm Calm -- 30.06 in1017.9 mb - 0.00 in0.0 mm 0.00 in0.0 mm
08:50 AM 69.5°F20.8°C 58.4°F14.7°C 68% Calm Calm -- 30.06 in1017.9 mb - 0.00 in0.0 mm 0.00 in0.0 mm
09:00 AM 71.2°F21.8°C 58.9°F14.9°C 65% Calm Calm -- 30.06 in1017.9 mb - 0.00 in0.0 mm 0.00 in0.0 mm
09:10 AM 73.1°F22.8°C 58.8°F14.9°C 61% Calm Calm -- 30.06 in1017.9 mb - 0.00 in0.0 mm 0.00 in0.0 mm
09:20 AM 73.7°F23.2°C 59.0°F15.0°C 60% Calm Calm -- 30.06 in1017.9 mb - 0.00 in0.0 mm 0.00 in0.0 mm
09:30 AM 73.4°F23.0°C 58.2°F14.6°C 59% Calm Calm -- 30.06 in1017.9 mb - 0.00 in0.0 mm 0.00 in0.0 mm
09:40 AM 74.4°F23.6°C 58.7°F14.8°C 58% Calm Calm -- 30.06 in1017.9 mb - 0.00 in0.0 mm 0.00 in0.0 mm
09:50 AM 75.6°F24.2°C 58.8°F14.9°C 56% Calm Calm -- 30.06 in1017.9 mb - 0.00 in0.0 mm 0.00 in0.0 mm
10:00 AM 75.6°F24.2°C 57.8°F14.3°C 54% Calm Calm -- 30.06 in1017.9 mb - 0.00 in0.0 mm 0.00 in0.0 mm
10:10 AM 77.2°F25.1°C 58.7°F14.8°C 53% Calm Calm -- 30.06 in1017.9 mb - 0.00 in0.0 mm 0.00 in0.0 mm
10:20 AM 77.8°F25.4°C 58.8°F14.9°C 52% Calm Calm -- 30.06 in1017.9 mb - 0.00 in0.0 mm 0.00 in0.0 mm
10:30 AM 78.4°F25.8°C 58.3°F14.6°C 50% Calm Calm -- 30.06 in1017.9 mb - 0.00 in0.0 mm 0.00 in0.0 mm
10:40 AM 78.8°F26.0°C 58.0°F14.4°C 49% Calm Calm -- 30.06 in1017.9 mb - 0.00 in0.0 mm 0.00 in0.0 mm
10:50 AM 79.7°F26.5°C 58.8°F14.9°C 49% Calm Calm -- 30.06 in1017.9 mb - 0.00 in0.0 mm 0.00 in0.0 mm
11:00 AM 80.0°F26.7°C 56.8°F13.8°C 45% Calm Calm -- 30.06 in1017.9 mb - 0.00 in0.0 mm 0.00 in0.0 mm
11:10 AM 80.7°F27.1°C 56.7°F13.7°C 44% Calm Calm -- 30.06 in1017.9 mb - 0.00 in0.0 mm 0.00 in0.0 mm
11:20 AM 81.0°F27.2°C 56.4°F13.6°C 43% Calm Calm -- 30.06 in1017.9 mb - 0.00 in0.0 mm 0.00 in0.0 mm
11:30 AM 81.6°F27.6°C 56.3°F13.5°C 42% Calm Calm -- 30.06 in1017.9 mb - 0.00 in0.0 mm 0.00 in0.0 mm
11:40 AM 82.5°F28.1°C 56.4°F13.6°C 41% Calm Calm -- 30.06 in1017.9 mb - 0.00 in0.0 mm 0.00 in0.0 mm
11:50 AM 82.2°F27.9°C 54.7°F12.6°C 39% Calm Calm -- 30.06 in1017.9 mb - 0.00 in0.0 mm 0.00 in0.0 mm
12:00 PM 83.0°F28.3°C 54.1°F12.3°C 37% Calm Calm -- 30.06 in1017.9 mb - 0.00 in0.0 mm 0.00 in0.0 mm
12:10 PM 82.9°F28.3°C 53.2°F11.8°C 36% Calm Calm -- 30.06 in1017.9 mb - 0.00 in0.0 mm 0.00 in0.0 mm
12:20 PM 83.8°F28.8°C 52.5°F11.4°C 34% Calm Calm -- 30.06 in1017.9 mb - 0.00 in0.0 mm 0.00 in0.0 mm
12:30 PM 85.1°F29.5°C 52.7°F11.5°C 33% Calm Calm -- 30.03 in1016.9 mb - 0.00 in0.0 mm 0.00 in0.0 mm
12:40 PM 84.9°F29.4°C 53.4°F11.9°C 34% 4.6 mph S7.4 kmh S 5.8 mph9.3 kmh 30.03 in1016.9 mb - 0.00 in0.0 mm 0.00 in0.0 mm
12:50 PM 85.2°F29.6°C 52.0°F11.1°C 32% 4.6 mph S7.4 kmh S 5.8 mph9.3 kmh 30.06 in1017.9 mb - 0.00 in0.0 mm 0.00 in0.0 mm
01:00 PM 85.3°F29.6°C 52.1°F11.2°C 32% 3.5 mph NW5.6 kmh NW 3.5 mph5.6 kmh 30.06 in1017.9 mb - 0.00 in0.0 mm 0.00 in0.0 mm
01:10 PM 85.8°F29.9°C 52.6°F11.4°C 32% Calm Calm 3.5 mph5.6 kmh 30.06 in1017.9 mb - 0.00 in0.0 mm 0.00 in0.0 mm
01:20 PM 86.5°F30.3°C 51.4°F10.8°C 30% Calm Calm 3.5 mph5.6 kmh 30.06 in1017.9 mb - 0.00 in0.0 mm 0.00 in0.0 mm
01:30 PM 86.8°F30.4°C 52.6°F11.4°C 31% 3.5 mph W5.6 kmh W 5.8 mph9.3 kmh 30.03 in1016.9 mb - 0.00 in0.0 mm 0.00 in0.0 mm
01:40 PM 86.7°F30.4°C 52.5°F11.4°C 31% 4.6 mph NW7.4 kmh NW 5.8 mph9.3 kmh 30.03 in1016.9 mb - 0.00 in0.0 mm 0.00 in0.0 mm
01:50 PM 87.1°F30.6°C 52.8°F11.6°C 31% 3.5 mph S5.6 kmh S 5.8 mph9.3 kmh 30.03 in1016.9 mb - 0.00 in0.0 mm 0.00 in0.0 mm
02:00 PM 88.2°F31.2°C 53.7°F12.1°C 31% 4.6 mph S7.4 kmh S 5.8 mph9.3 kmh 30.03 in1016.9 mb - 0.00 in0.0 mm 0.00 in0.0 mm
02:10 PM 88.4°F31.3°C 54.8°F12.7°C 32% 3.5 mph S5.6 kmh S 4.6 mph7.4 kmh 30.03 in1016.9 mb - 0.00 in0.0 mm 0.00 in0.0 mm
02:20 PM 89.0°F31.7°C 55.3°F12.9°C 32% Calm Calm -- 30.03 in1016.9 mb - 0.00 in0.0 mm 0.00 in0.0 mm
02:30 PM 88.6°F31.4°C 54.1°F12.3°C 31% 4.6 mph SW7.4 kmh SW 4.6 mph7.4 kmh 30.03 in1016.9 mb - 0.00 in0.0 mm 0.00 in0.0 mm
02:40 PM 89.6°F32.0°C 55.8°F13.2°C 32% 3.5 mph SSW5.6 kmh SSW 4.6 mph7.4 kmh 30.03 in1016.9 mb - 0.00 in0.0 mm 0.00 in0.0 mm
02:50 PM 88.4°F31.3°C 53.9°F12.2°C 31% 3.5 mph ESE5.6 kmh ESE 4.6 mph7.4 kmh 30.03 in1016.9 mb - 0.00 in0.0 mm 0.00 in0.0 mm
03:00 PM 89.2°F31.8°C 56.3°F13.5°C 33% 5.8 mph SSE9.3 kmh SSE 5.8 mph9.3 kmh 30.03 in1016.9 mb - 0.00 in0.0 mm 0.00 in0.0 mm
03:10 PM 89.4°F31.9°C 56.5°F13.6°C 33% 3.5 mph SSE5.6 kmh SSE 5.8 mph9.3 kmh 30.03 in1016.9 mb - 0.00 in0.0 mm 0.00 in0.0 mm
03:20 PM 88.6°F31.4°C 55.0°F12.8°C 32% 2.3 mph S3.7 kmh S 3.5 mph5.6 kmh 30.03 in1016.9 mb - 0.00 in0.0 mm 0.00 in0.0 mm
03:30 PM 88.4°F31.3°C 54.8°F12.7°C 32% 4.6 mph SSW7.4 kmh SSW 5.8 mph9.3 kmh 30.03 in1016.9 mb - 0.00 in0.0 mm 0.00 in0.0 mm
03:40 PM 88.5°F31.4°C 54.9°F12.7°C 32% 3.5 mph S5.6 kmh S 6.9 mph11.1 kmh 30.03 in1016.9 mb - 0.00 in0.0 mm 0.00 in0.0 mm
03:50 PM 88.5°F31.4°C 54.8°F12.7°C 32% 3.5 mph S5.6 kmh S 5.8 mph9.3 kmh 30.03 in1016.9 mb - 0.00 in0.0 mm 0.00 in0.0 mm
04:00 PM 88.5°F31.4°C 54.0°F12.2°C 31% 4.6 mph S7.4 kmh S 3.5 mph5.6 kmh 30.03 in1016.9 mb - 0.00 in0.0 mm 0.00 in0.0 mm
04:10 PM 88.8°F31.6°C 55.1°F12.8°C 32% 3.5 mph S5.6 kmh S 3.5 mph5.6 kmh 30.03 in1016.9 mb - 0.00 in0.0 mm 0.00 in0.0 mm
04:20 PM 88.7°F31.5°C 55.0°F12.8°C 32% 2.3 mph SSW3.7 kmh SSW 3.5 mph5.6 kmh 30.03 in1016.9 mb - 0.00 in0.0 mm 0.00 in0.0 mm
04:30 PM 88.5°F31.4°C 55.7°F13.2°C 33% Calm Calm -- 30.03 in1016.9 mb - 0.00 in0.0 mm 0.00 in0.0 mm
04:40 PM 88.2°F31.2°C 54.6°F12.6°C 32% Calm Calm -- 30.03 in1016.9 mb - 0.00 in0.0 mm 0.00 in0.0 mm
04:50 PM 87.6°F30.9°C 54.1°F12.3°C 32% Calm Calm -- 30.00 in1015.9 mb - 0.00 in0.0 mm 0.00 in0.0 mm
05:00 PM 87.4°F30.8°C 54.8°F12.7°C 33% 2.3 mph SW3.7 kmh SW 3.5 mph5.6 kmh 30.03 in1016.9 mb - 0.00 in0.0 mm 0.00 in0.0 mm
05:10 PM 86.4°F30.2°C 53.9°F12.2°C 33% 4.6 mph ESE7.4 kmh ESE 5.8 mph9.3 kmh 30.03 in1016.9 mb - 0.00 in0.0 mm 0.00 in0.0 mm
05:20 PM 85.6°F29.8°C 53.2°F11.8°C 33% Calm Calm -- 30.03 in1016.9 mb - 0.00 in0.0 mm 0.00 in0.0 mm
05:30 PM 85.8°F29.9°C 54.2°F12.3°C 34% 3.5 mph WNW5.6 kmh WNW 3.5 mph5.6 kmh 30.03 in1016.9 mb - 0.00 in0.0 mm 0.00 in0.0 mm
05:40 PM 85.2°F29.6°C 52.8°F11.6°C 33% Calm Calm 3.5 mph5.6 kmh 30.03 in1016.9 mb - 0.00 in0.0 mm 0.00 in0.0 mm
05:50 PM 84.7°F29.3°C 53.2°F11.8°C 34% 2.3 mph WNW3.7 kmh WNW 5.8 mph9.3 kmh 30.03 in1016.9 mb - 0.00 in0.0 mm 0.00 in0.0 mm
06:00 PM 84.6°F29.2°C 53.1°F11.7°C 34% Calm Calm 3.5 mph5.6 kmh 30.00 in1015.9 mb - 0.00 in0.0 mm 0.00 in0.0 mm
06:10 PM 84.3°F29.1°C 52.9°F11.6°C 34% Calm Calm -- 30.00 in1015.9 mb - 0.00 in0.0 mm 0.00 in0.0 mm
06:20 PM 83.9°F28.8°C 52.5°F11.4°C 34% Calm Calm -- 30.03 in1016.9 mb - 0.00 in0.0 mm 0.00 in0.0 mm
06:30 PM 83.3°F28.5°C 53.6°F12.0°C 36% Calm Calm 2.3 mph3.7 kmh 30.03 in1016.9 mb - 0.00 in0.0 mm 0.00 in0.0 mm
06:40 PM 82.2°F27.9°C 54.8°F12.7°C 39% 2.3 mph S3.7 kmh S 3.5 mph5.6 kmh 30.03 in1016.9 mb - 0.00 in0.0 mm 0.00 in0.0 mm
06:50 PM 81.3°F27.4°C 56.0°F13.3°C 42% Calm Calm -- 30.00 in1015.9 mb - 0.00 in0.0 mm 0.00 in0.0 mm
07:00 PM 80.3°F26.8°C 58.8°F14.9°C 48% Calm Calm -- 30.00 in1015.9 mb - 0.00 in0.0 mm 0.00 in0.0 mm
07:10 PM 79.3°F26.3°C 66.5°F19.2°C 65% Calm Calm -- 30.00 in1015.9 mb - 0.00 in0.0 mm 0.00 in0.0 mm
07:20 PM 78.2°F25.7°C 66.7°F19.3°C 68% Calm Calm -- 30.03 in1016.9 mb - 0.00 in0.0 mm 0.00 in0.0 mm
07:30 PM 77.4°F25.2°C 65.1°F18.4°C 66% Calm Calm -- 30.03 in1016.9 mb - 0.00 in0.0 mm 0.00 in0.0 mm
07:40 PM 76.6°F24.8°C 64.8°F18.2°C 67% Calm Calm -- 30.03 in1016.9 mb - 0.00 in0.0 mm 0.00 in0.0 mm
07:50 PM 76.3°F24.6°C 64.9°F18.3°C 68% Calm Calm -- 30.03 in1016.9 mb - 0.00 in0.0 mm 0.00 in0.0 mm
08:00 PM 75.6°F24.2°C 63.9°F17.7°C 67% Calm Calm -- 30.03 in1016.9 mb - 0.00 in0.0 mm 0.00 in0.0 mm
08:10 PM 74.8°F23.8°C 63.1°F17.3°C 67% Calm Calm -- 30.03 in1016.9 mb - 0.00 in0.0 mm 0.00 in0.0 mm
08:20 PM 73.8°F23.2°C 62.2°F16.8°C 67% Calm Calm -- 30.03 in1016.9 mb - 0.00 in0.0 mm 0.00 in0.0 mm
08:30 PM 72.7°F22.6°C 61.5°F16.4°C 68% Calm Calm -- 30.03 in1016.9 mb - 0.00 in0.0 mm 0.00 in0.0 mm
08:40 PM 71.8°F22.1°C 61.1°F16.2°C 69% Calm Calm -- 30.03 in1016.9 mb - 0.00 in0.0 mm 0.00 in0.0 mm
08:50 PM 71.4°F21.9°C 62.3°F16.8°C 73% 3.5 mph SW5.6 kmh SW 3.5 mph5.6 kmh 30.03 in1016.9 mb - 0.00 in0.0 mm 0.00 in0.0 mm
09:00 PM 70.4°F21.3°C 63.6°F17.6°C 79% Calm Calm -- 30.06 in1017.9 mb - 0.00 in0.0 mm 0.00 in0.0 mm
09:10 PM 69.7°F20.9°C 63.6°F17.6°C 81% 3.5 mph NNW5.6 kmh NNW 3.5 mph5.6 kmh 30.06 in1017.9 mb - 0.00 in0.0 mm 0.00 in0.0 mm
09:20 PM 68.7°F20.4°C 62.9°F17.2°C 82% 1.2 mph NNW1.9 kmh NNW 3.5 mph5.6 kmh 30.03 in1016.9 mb - 0.00 in0.0 mm 0.00 in0.0 mm
09:30 PM 68.3°F20.2°C 62.6°F17.0°C 82% 1.2 mph NNW1.9 kmh NNW 2.3 mph3.7 kmh 30.06 in1017.9 mb - 0.00 in0.0 mm 0.00 in0.0 mm
09:40 PM 68.1°F20.1°C 62.4°F16.9°C 82% Calm Calm -- 30.06 in1017.9 mb - 0.00 in0.0 mm 0.00 in0.0 mm
09:50 PM 67.7°F19.8°C 62.4°F16.9°C 83% 1.2 mph WSW1.9 kmh WSW 2.3 mph3.7 kmh 30.06 in1017.9 mb - 0.00 in0.0 mm 0.00 in0.0 mm
10:00 PM 67.1°F19.5°C 61.7°F16.5°C 83% Calm Calm -- 30.06 in1017.9 mb - 0.00 in0.0 mm 0.00 in0.0 mm
10:10 PM 66.5°F19.2°C 61.5°F16.4°C 84% Calm Calm -- 30.06 in1017.9 mb - 0.00 in0.0 mm 0.00 in0.0 mm
10:20 PM 65.9°F18.8°C 61.6°F16.4°C 86% Calm Calm -- 30.06 in1017.9 mb - 0.00 in0.0 mm 0.00 in0.0 mm
10:30 PM 65.5°F18.6°C 61.5°F16.4°C 87% Calm Calm -- 30.06 in1017.9 mb - 0.00 in0.0 mm 0.00 in0.0 mm
10:40 PM 64.9°F18.3°C 61.3°F16.3°C 88% Calm Calm -- 30.06 in1017.9 mb - 0.00 in0.0 mm 0.00 in0.0 mm
10:50 PM 64.6°F18.1°C 61.3°F16.3°C 89% Calm Calm -- 30.06 in1017.9 mb - 0.00 in0.0 mm 0.00 in0.0 mm
11:00 PM 64.2°F17.9°C 61.2°F16.2°C 90% Calm Calm -- 30.06 in1017.9 mb - 0.00 in0.0 mm 0.00 in0.0 mm
11:10 PM 63.9°F17.7°C 61.2°F16.2°C 91% Calm Calm -- 30.06 in1017.9 mb - 0.00 in0.0 mm 0.00 in0.0 mm
11:20 PM 63.7°F17.6°C 61.0°F16.1°C 91% Calm Calm -- 30.06 in1017.9 mb - 0.00 in0.0 mm 0.00 in0.0 mm
11:30 PM 63.3°F17.4°C 61.0°F16.1°C 92% Calm Calm -- 30.06 in1017.9 mb - 0.00 in0.0 mm 0.00 in0.0 mm
11:40 PM 63.1°F17.3°C 60.8°F16.0°C 92% Calm Calm -- 30.06 in1017.9 mb - 0.00 in0.0 mm 0.00 in0.0 mm
11:50 PM 62.9°F17.2°C 60.9°F16.1°C 93% Calm Calm -- 30.06 in1017.9 mb - 0.00 in0.0 mm 0.00 in0.0 mm